createdAt,value
2022-10-22T00:00:35.547Z,1.97
2022-10-22T00:03:06.735Z,2.07
2022-10-22T00:05:40.544Z,2.10
2022-10-22T00:08:11.674Z,2.27
2022-10-22T00:10:42.522Z,1.87
2022-10-22T00:13:13.990Z,2.00
2022-10-22T00:15:45.064Z,1.67
2022-10-22T00:18:16.624Z,2.10
2022-10-22T00:20:49.705Z,1.80
2022-10-22T00:23:20.854Z,2.27
2022-10-22T00:25:51.358Z,2.27
2022-10-22T00:28:22.974Z,1.97
2022-10-22T00:31:00.472Z,2.40
2022-10-22T00:33:32.201Z,2.00
2022-10-22T00:36:05.521Z,2.37
2022-10-22T00:38:37.814Z,3.20
2022-10-22T00:41:09.162Z,3.53
2022-10-22T00:43:58.858Z,4.50
2022-10-22T00:46:29.818Z,3.93
2022-10-22T00:49:02.753Z,2.80
2022-10-22T00:51:38.363Z,2.47
2022-10-22T00:54:11.298Z,2.17
2022-10-22T00:56:42.203Z,2.10
2022-10-22T00:59:14.839Z,2.43
2022-10-22T01:01:46.267Z,2.30
2022-10-22T01:04:17.756Z,2.43
2022-10-22T01:06:50.730Z,2.53
2022-10-22T01:09:28.721Z,2.57
2022-10-22T01:12:05.156Z,2.17
2022-10-22T01:14:45.890Z,2.37
2022-10-22T01:17:25.635Z,2.10
2022-10-22T01:20:09.592Z,2.33
2022-10-22T01:22:46.348Z,2.43
2022-10-22T01:25:26.287Z,2.50
2022-10-22T01:28:08.915Z,2.37
2022-10-22T01:30:44.774Z,2.80
2022-10-22T01:33:18.564Z,2.60
2022-10-22T01:35:50.340Z,2.43
2022-10-22T01:38:25.544Z,2.77
2022-10-22T01:40:59.613Z,2.90
2022-10-22T01:43:30.716Z,3.10
2022-10-22T01:46:09.554Z,2.70
2022-10-22T01:48:53.931Z,2.60
2022-10-22T01:51:56.123Z,3.70
2022-10-22T01:54:35.123Z,4.07
2022-10-22T01:57:15.766Z,3.37
2022-10-22T01:59:55.870Z,3.27
2022-10-22T02:02:39.180Z,2.93
2022-10-22T02:05:16.034Z,3.27
2022-10-22T02:07:51.240Z,3.43
2022-10-22T02:10:23.136Z,3.97
2022-10-22T02:12:56.801Z,3.87
2022-10-22T02:15:29.946Z,3.47
2022-10-22T02:18:04.044Z,3.10
2022-10-22T02:20:38.473Z,3.03
2022-10-22T02:23:09.944Z,3.60
2022-10-22T02:25:44.938Z,3.10
2022-10-22T02:28:19.663Z,3.80
2022-10-22T02:30:57.925Z,2.90
2022-10-22T02:33:34.826Z,3.70
2022-10-22T02:36:07.931Z,3.60
2022-10-22T02:38:41.264Z,3.40
2022-10-22T02:41:13.042Z,2.70
2022-10-22T02:43:52.334Z,2.37
2022-10-22T02:46:23.688Z,1.97
2022-10-22T02:48:56.496Z,2.53
2022-10-22T02:51:27.533Z,1.70
2022-10-22T02:53:58.798Z,2.20
2022-10-22T02:56:30.698Z,1.73
2022-10-22T02:59:02.008Z,1.77
2022-10-22T03:01:33.338Z,1.80
2022-10-22T03:04:06.590Z,2.13
2022-10-22T03:06:37.699Z,1.93
2022-10-22T03:09:09.262Z,1.90
2022-10-22T03:11:40.747Z,1.80
2022-10-22T03:14:11.456Z,1.50
2022-10-22T03:16:42.484Z,1.67
2022-10-22T03:19:17.422Z,1.90
2022-10-22T03:21:52.105Z,1.70
2022-10-22T03:24:27.764Z,1.63
2022-10-22T03:26:59.690Z,2.10
2022-10-22T03:29:31.009Z,1.67
2022-10-22T03:32:02.882Z,1.90
2022-10-22T03:34:36.157Z,1.70
2022-10-22T03:37:07.036Z,1.83
2022-10-22T03:39:39.038Z,1.83
2022-10-22T03:42:10.805Z,1.80
2022-10-22T03:44:44.012Z,2.00
2022-10-22T03:47:17.147Z,1.77
2022-10-22T03:49:51.919Z,1.90
2022-10-22T03:52:23.089Z,1.77
2022-10-22T03:54:55.266Z,1.87
2022-10-22T03:57:26.700Z,2.00
2022-10-22T03:59:57.725Z,2.20
2022-10-22T04:02:28.802Z,1.90
2022-10-22T04:05:02.414Z,1.73
2022-10-22T04:07:34.077Z,2.03
2022-10-22T04:10:05.447Z,1.70
2022-10-22T04:12:36.644Z,1.90
2022-10-22T04:15:08.561Z,2.00
2022-10-22T04:17:40.226Z,2.27
2022-10-22T04:20:14.872Z,2.03
2022-10-22T04:22:46.858Z,2.00
2022-10-22T04:25:18.144Z,2.27
2022-10-22T04:27:49.648Z,2.00
2022-10-22T04:30:21.097Z,2.07
2022-10-22T04:32:52.184Z,1.80
2022-10-22T04:38:01.985Z,2.07
2022-10-22T04:40:33.188Z,2.00
2022-10-22T04:43:04.079Z,2.17
2022-10-22T04:45:37.163Z,1.90
2022-10-22T04:48:08.293Z,2.40
2022-10-22T04:50:42.161Z,2.03
2022-10-22T04:53:13.625Z,1.70
2022-10-22T04:55:45.650Z,2.17
2022-10-22T04:58:17.085Z,2.03
2022-10-22T05:00:48.739Z,2.30
2022-10-22T05:03:20.000Z,2.27
2022-10-22T05:05:52.903Z,2.43
2022-10-22T05:08:23.948Z,2.30
2022-10-22T05:10:54.932Z,2.30
2022-10-22T05:13:26.305Z,2.10
2022-10-22T05:15:57.300Z,2.20
2022-10-22T05:18:28.328Z,2.07
2022-10-22T05:21:01.596Z,2.30
2022-10-22T05:23:33.056Z,2.47
2022-10-22T05:26:07.897Z,2.00
2022-10-22T05:28:39.569Z,2.00
2022-10-22T05:31:11.517Z,2.20
2022-10-22T05:33:42.973Z,2.00
2022-10-22T05:36:18.418Z,2.30
2022-10-22T05:38:49.731Z,2.57
2022-10-22T05:41:24.305Z,2.67
2022-10-22T05:43:57.912Z,2.83
2022-10-22T05:46:30.981Z,2.87
2022-10-22T05:49:06.136Z,2.30
2022-10-22T05:51:40.507Z,3.23
2022-10-22T05:54:13.953Z,3.10
2022-10-22T05:56:45.051Z,3.27
2022-10-22T05:59:16.678Z,2.50
2022-10-22T06:01:47.866Z,2.77
2022-10-22T06:04:20.422Z,2.30
2022-10-22T06:06:55.793Z,2.93
2022-10-22T06:09:31.347Z,2.93
2022-10-22T06:12:03.009Z,1.97
2022-10-22T06:14:34.749Z,2.37
2022-10-22T06:17:06.072Z,2.50
2022-10-22T06:19:37.373Z,2.30
2022-10-22T06:22:10.124Z,2.10
2022-10-22T06:24:44.315Z,1.93
2022-10-22T06:27:16.372Z,1.60
2022-10-22T06:29:50.078Z,1.70
2022-10-22T06:32:22.008Z,1.83
2022-10-22T06:34:54.021Z,1.70
2022-10-22T06:37:26.909Z,1.50
2022-10-22T06:39:58.264Z,1.60
2022-10-22T06:42:30.390Z,1.70
2022-10-22T06:47:34.337Z,1.80
2022-10-22T06:50:05.457Z,2.10
2022-10-22T06:52:38.648Z,2.03
2022-10-22T06:55:10.231Z,2.40
2022-10-22T06:57:42.290Z,2.03
2022-10-22T07:00:15.469Z,2.17
2022-10-22T07:02:47.289Z,2.10
2022-10-22T07:05:19.513Z,2.10
2022-10-22T07:07:52.502Z,2.40
2022-10-22T07:10:25.990Z,2.50
2022-10-22T07:12:59.761Z,2.80
2022-10-22T07:15:30.894Z,2.13
2022-10-22T07:18:02.682Z,2.53
2022-10-22T07:20:34.524Z,2.70
2022-10-22T07:23:08.008Z,2.60
2022-10-22T07:25:38.877Z,3.40
2022-10-22T07:28:09.821Z,2.80
2022-10-22T07:30:41.844Z,2.63
2022-10-22T07:33:13.726Z,2.23
2022-10-22T07:35:45.535Z,2.10
2022-10-22T07:38:19.231Z,2.37
2022-10-22T07:40:51.262Z,2.50
2022-10-22T07:43:22.393Z,2.20
2022-10-22T07:45:53.934Z,2.07
2022-10-22T07:48:25.542Z,2.43
2022-10-22T07:50:56.621Z,1.90
2022-10-22T07:53:29.877Z,1.90
2022-10-22T07:56:01.080Z,2.10
2022-10-22T07:58:32.500Z,1.93
2022-10-22T08:01:06.684Z,2.07
2022-10-22T08:03:38.072Z,2.10
2022-10-22T08:06:09.498Z,1.90
2022-10-22T08:08:42.526Z,1.73
2022-10-22T08:11:14.364Z,1.93
2022-10-22T08:13:45.909Z,1.53
2022-10-22T08:16:17.831Z,2.20
2022-10-22T08:18:49.095Z,1.80
2022-10-22T08:21:20.542Z,1.50
2022-10-22T08:23:54.805Z,1.60
2022-10-22T08:26:26.359Z,1.50
2022-10-22T08:28:57.815Z,1.60
2022-10-22T08:31:29.486Z,1.70
2022-10-22T08:34:00.939Z,1.37
2022-10-22T08:36:32.168Z,1.57
2022-10-22T08:39:05.678Z,1.37
2022-10-22T08:41:46.164Z,1.20
2022-10-22T08:44:41.343Z,1.17
2022-10-22T08:47:31.462Z,1.17
2022-10-22T08:50:04.341Z,1.10
2022-10-22T08:52:37.652Z,1.47
2022-10-22T08:55:19.586Z,1.33
2022-10-22T08:57:59.128Z,1.00
2022-10-22T09:00:39.316Z,1.20
2022-10-22T09:03:29.216Z,1.00
2022-10-22T09:06:06.807Z,1.10
2022-10-22T09:08:40.126Z,1.10
2022-10-22T09:11:23.276Z,1.30
2022-10-22T09:13:57.090Z,1.33
2022-10-22T09:16:39.897Z,1.30
2022-10-22T09:19:24.403Z,1.50
2022-10-22T09:22:04.451Z,1.70
2022-10-22T09:24:40.911Z,1.33
2022-10-22T09:27:19.791Z,1.30
2022-10-22T09:29:53.139Z,1.10
2022-10-22T09:32:25.097Z,1.20
2022-10-22T09:35:00.419Z,1.00
2022-10-22T09:37:33.767Z,1.20
2022-10-22T09:40:10.399Z,1.30
2022-10-22T09:42:44.501Z,1.50
2022-10-22T09:45:22.516Z,1.40
2022-10-22T09:48:02.152Z,1.37
2022-10-22T09:50:44.432Z,1.50
2022-10-22T09:53:21.101Z,1.13
2022-10-22T09:55:57.241Z,1.20
2022-10-22T09:58:31.317Z,1.30
2022-10-22T10:01:05.034Z,1.17
2022-10-22T10:03:37.246Z,1.50
2022-10-22T10:06:08.934Z,1.30
2022-10-22T10:08:40.770Z,1.70
2022-10-22T10:11:19.954Z,1.60
2022-10-22T10:14:02.008Z,1.23
2022-10-22T10:16:46.406Z,1.57
2022-10-22T10:19:36.202Z,1.30
2022-10-22T10:22:20.643Z,1.50
2022-10-22T10:25:13.858Z,1.47
2022-10-22T10:27:51.607Z,1.50
2022-10-22T10:30:27.499Z,1.10
2022-10-22T10:33:23.655Z,1.10
2022-10-22T10:36:00.735Z,0.90
2022-10-22T10:38:51.797Z,1.10
2022-10-22T10:41:30.629Z,1.00
2022-10-22T10:44:15.150Z,0.70
2022-10-22T10:46:58.068Z,1.00
2022-10-22T10:49:32.815Z,1.60
2022-10-22T10:52:17.510Z,1.03
2022-10-22T10:55:01.722Z,1.10
2022-10-22T10:57:44.035Z,0.97
2022-10-22T11:00:18.830Z,0.80
2022-10-22T11:03:44.138Z,0.80
2022-10-22T11:06:19.447Z,1.00
2022-10-22T11:09:00.580Z,0.80
2022-10-22T11:11:39.711Z,0.90
2022-10-22T11:14:24.223Z,0.90
2022-10-22T11:17:03.397Z,0.80
2022-10-22T11:19:59.977Z,1.00
2022-10-22T11:22:37.612Z,0.87
2022-10-22T11:25:21.417Z,0.80
2022-10-22T11:28:00.953Z,0.90
2022-10-22T11:30:39.254Z,0.90
2022-10-22T11:33:14.715Z,0.83
2022-10-22T11:35:50.919Z,0.90
2022-10-22T11:38:29.066Z,0.77
2022-10-22T11:41:05.171Z,0.87
2022-10-22T11:43:38.285Z,1.00
2022-10-22T11:46:29.436Z,0.80
2022-10-22T11:49:19.619Z,1.10
2022-10-22T11:51:53.716Z,1.00
2022-10-22T11:54:43.865Z,1.20
2022-10-22T11:57:25.257Z,2.03
2022-10-22T11:59:59.675Z,1.50
2022-10-22T12:03:04.768Z,2.10
2022-10-22T12:05:40.330Z,2.20
2022-10-22T12:08:28.068Z,2.03
2022-10-22T12:11:09.938Z,2.20
2022-10-22T12:14:05.514Z,2.40
2022-10-22T12:16:58.393Z,2.70
2022-10-22T12:19:36.611Z,2.43
2022-10-22T12:22:21.281Z,2.50
2022-10-22T12:25:00.588Z,3.00
2022-10-22T12:27:37.363Z,2.70
2022-10-22T12:30:22.279Z,3.00
2022-10-22T12:32:56.341Z,3.93
2022-10-22T12:35:30.157Z,3.43
2022-10-22T12:38:04.304Z,3.43
2022-10-22T12:40:39.136Z,3.57
2022-10-22T12:43:15.042Z,3.30
2022-10-22T12:45:49.894Z,3.43
2022-10-22T12:48:25.354Z,3.57
2022-10-22T12:50:58.436Z,3.83
2022-10-22T12:53:32.914Z,3.80
2022-10-22T12:56:08.495Z,2.30
2022-10-22T12:58:43.995Z,2.17
2022-10-22T13:01:16.850Z,2.10
2022-10-22T13:03:50.832Z,1.90
2022-10-22T13:06:29.489Z,2.10
2022-10-22T13:09:10.335Z,1.73
2022-10-22T13:11:46.682Z,2.10
2022-10-22T13:14:29.377Z,2.40
2022-10-22T13:17:13.172Z,2.33
2022-10-22T13:19:47.560Z,2.63
2022-10-22T13:22:39.363Z,3.43
2022-10-22T13:25:26.585Z,2.97
2022-10-22T13:28:00.997Z,2.73
2022-10-22T13:30:34.220Z,3.03
2022-10-22T13:33:07.302Z,3.30
2022-10-22T13:35:41.366Z,3.10
2022-10-22T13:38:18.679Z,3.10
2022-10-22T13:40:50.042Z,3.20
2022-10-22T13:43:24.081Z,3.70
2022-10-22T13:45:58.104Z,3.43
2022-10-22T13:48:31.065Z,3.17
2022-10-22T13:51:02.139Z,2.30
2022-10-22T13:53:34.548Z,1.90
2022-10-22T13:56:06.218Z,2.20
2022-10-22T13:58:39.953Z,2.00
2022-10-22T14:01:20.196Z,1.70
2022-10-22T14:03:53.212Z,2.07
2022-10-22T14:06:25.570Z,2.27
2022-10-22T14:09:01.631Z,1.87
2022-10-22T14:11:34.220Z,2.30
2022-10-22T14:14:09.771Z,1.57
2022-10-22T14:16:41.935Z,1.17
2022-10-22T14:19:22.008Z,1.50
2022-10-22T14:21:53.209Z,1.43
2022-10-22T14:24:24.935Z,1.50
2022-10-22T14:26:55.992Z,0.90
2022-10-22T14:29:29.005Z,1.03
2022-10-22T14:32:00.492Z,1.50
2022-10-22T14:34:31.598Z,1.23
2022-10-22T14:37:02.979Z,1.50
2022-10-22T14:39:33.984Z,1.57
2022-10-22T14:42:05.647Z,1.60
2022-10-22T14:44:39.139Z,1.10
2022-10-22T14:47:10.092Z,1.27
2022-10-22T14:49:42.531Z,1.10
2022-10-22T14:52:18.529Z,0.97
2022-10-22T14:54:51.154Z,1.30
2022-10-22T14:57:22.885Z,1.53
2022-10-22T14:59:57.684Z,1.20
2022-10-22T15:02:29.003Z,1.30
2022-10-22T15:05:00.510Z,1.40
2022-10-22T15:07:32.153Z,1.20
2022-10-22T15:10:03.555Z,1.00
2022-10-22T15:12:35.697Z,1.10
2022-10-22T15:15:10.218Z,1.00
2022-10-22T15:17:42.478Z,1.30
2022-10-22T15:20:14.306Z,1.33
2022-10-22T15:22:46.408Z,1.10
2022-10-22T15:25:19.043Z,1.00
2022-10-22T15:27:51.819Z,1.40
2022-10-22T15:30:27.486Z,1.43
2022-10-22T15:32:58.925Z,1.63
2022-10-22T15:35:32.164Z,1.40
2022-10-22T15:38:03.619Z,1.63
2022-10-22T15:40:35.389Z,1.67
2022-10-22T15:43:09.028Z,1.57
2022-10-22T15:45:42.922Z,1.87
2022-10-22T15:48:15.541Z,1.93
2022-10-22T15:50:47.580Z,1.70
2022-10-22T15:53:19.682Z,1.90
2022-10-22T15:55:53.196Z,2.07
2022-10-22T15:58:24.566Z,1.80
2022-10-22T16:00:59.212Z,2.40
2022-10-22T16:06:09.663Z,2.13
2022-10-22T16:08:41.588Z,1.87
2022-10-22T16:11:13.439Z,2.27
2022-10-22T16:13:45.295Z,1.80
2022-10-22T16:16:18.417Z,1.70
2022-10-22T16:18:49.484Z,1.90
2022-10-22T16:21:21.083Z,2.17
2022-10-22T16:23:54.121Z,1.80
2022-10-22T16:26:25.567Z,1.90
2022-10-22T16:28:57.611Z,1.83
2022-10-22T16:31:31.335Z,1.90
2022-10-22T16:34:02.937Z,1.90
2022-10-22T16:36:34.674Z,1.80
2022-10-22T16:39:06.324Z,2.00
2022-10-22T16:41:40.093Z,1.57
2022-10-22T16:44:14.773Z,1.70
2022-10-22T16:46:47.892Z,1.60
2022-10-22T16:49:19.464Z,1.40
2022-10-22T16:51:50.535Z,1.80
2022-10-22T16:54:23.213Z,1.83
2022-10-22T16:56:54.813Z,2.40
2022-10-22T16:59:26.694Z,1.80
2022-10-22T17:01:59.925Z,2.03
2022-10-22T17:04:30.985Z,2.17
2022-10-22T17:07:02.377Z,1.90
2022-10-22T17:09:33.418Z,2.17
2022-10-22T17:12:04.632Z,1.80
2022-10-22T17:14:36.493Z,1.90
2022-10-22T17:17:09.900Z,1.93
2022-10-22T17:19:40.996Z,1.97
2022-10-22T17:22:14.903Z,1.93
2022-10-22T17:24:48.896Z,2.03
2022-10-22T17:27:20.095Z,1.53
2022-10-22T17:29:51.520Z,1.80
2022-10-22T17:32:26.133Z,1.70
2022-10-22T17:34:57.452Z,1.57
2022-10-22T17:37:29.128Z,1.30
2022-10-22T17:40:01.225Z,1.40
2022-10-22T17:42:33.001Z,1.50
2022-10-22T17:45:03.980Z,1.67
2022-10-22T17:47:37.722Z,1.20
2022-10-22T17:50:09.653Z,1.10
2022-10-22T17:52:41.516Z,1.30
2022-10-22T17:55:15.795Z,1.33
2022-10-22T17:57:46.892Z,1.27
2022-10-22T18:02:57.824Z,1.10
2022-10-22T18:05:29.781Z,1.30
2022-10-22T18:08:04.387Z,1.20
2022-10-22T18:10:43.780Z,1.00
2022-10-22T18:13:16.385Z,1.10
2022-10-22T18:15:47.305Z,0.90
2022-10-22T18:18:20.305Z,1.20
2022-10-22T18:20:54.615Z,0.80
2022-10-22T18:23:26.152Z,0.90
2022-10-22T18:25:57.206Z,0.90
2022-10-22T18:28:28.259Z,1.00
2022-10-22T18:30:59.015Z,0.97
2022-10-22T18:33:32.643Z,0.83
2022-10-22T18:36:08.293Z,0.70
2022-10-22T18:38:40.136Z,0.70
2022-10-22T18:41:12.781Z,0.97
2022-10-22T18:43:43.822Z,1.20
2022-10-22T18:46:14.830Z,1.00
2022-10-22T18:48:48.524Z,1.10
2022-10-22T18:51:19.749Z,0.90
2022-10-22T18:54:05.389Z,0.90
2022-10-22T18:56:47.100Z,0.90
2022-10-22T18:59:20.176Z,0.90
2022-10-22T19:01:52.612Z,1.00
2022-10-22T19:04:29.272Z,0.93
2022-10-22T19:07:01.084Z,1.10
2022-10-22T19:09:32.509Z,1.13
2022-10-22T19:12:03.647Z,1.00
2022-10-22T19:14:34.989Z,0.80
2022-10-22T19:17:06.854Z,0.83
2022-10-22T19:19:40.592Z,1.10
2022-10-22T19:22:11.618Z,0.80
2022-10-22T19:24:42.918Z,1.10
2022-10-22T19:27:13.936Z,0.90
2022-10-22T19:29:46.464Z,1.13
2022-10-22T19:32:17.637Z,0.80
2022-10-22T19:34:50.993Z,1.00
2022-10-22T19:37:22.026Z,1.30
2022-10-22T19:39:53.285Z,1.33
2022-10-22T19:42:24.300Z,1.07
2022-10-22T19:44:56.202Z,0.60
2022-10-22T19:47:27.709Z,1.30
2022-10-22T19:50:00.749Z,0.80
2022-10-22T19:52:31.905Z,1.00
2022-10-22T19:55:02.999Z,0.87
2022-10-22T19:57:33.541Z,0.80
2022-10-22T20:00:05.073Z,1.20
2022-10-22T20:02:35.983Z,1.20
2022-10-22T20:05:09.692Z,1.30
2022-10-22T20:07:40.960Z,1.00
2022-10-22T20:10:13.161Z,1.00
2022-10-22T20:12:44.638Z,0.90
2022-10-22T20:15:17.913Z,1.60
2022-10-22T20:17:48.945Z,1.40
2022-10-22T20:20:26.215Z,1.30
2022-10-22T20:22:57.678Z,1.00
2022-10-22T20:25:28.740Z,1.20
2022-10-22T20:27:59.837Z,1.30
2022-10-22T20:30:31.211Z,1.20
2022-10-22T20:33:02.354Z,1.57
2022-10-22T20:35:35.763Z,1.17
2022-10-22T20:38:06.874Z,1.20
2022-10-22T20:40:38.217Z,1.37
2022-10-22T20:43:11.700Z,1.20
2022-10-22T20:45:43.334Z,1.40
2022-10-22T20:48:15.447Z,1.50
2022-10-22T20:50:48.473Z,1.73
2022-10-22T20:53:19.455Z,1.70
2022-10-22T20:55:50.784Z,1.40
2022-10-22T20:58:24.521Z,1.60
2022-10-22T21:00:59.202Z,1.50
2022-10-22T21:03:30.377Z,1.60
2022-10-22T21:06:04.432Z,1.60
2022-10-22T21:08:35.661Z,1.53
2022-10-22T21:11:06.907Z,1.57
2022-10-22T21:13:38.285Z,1.83
2022-10-22T21:16:13.753Z,1.67
2022-10-22T21:18:44.846Z,1.73
2022-10-22T21:21:20.559Z,1.57
2022-10-22T21:23:52.803Z,2.23
2022-10-22T21:26:24.816Z,1.60
2022-10-22T21:28:55.989Z,1.80
2022-10-22T21:31:27.570Z,2.07
2022-10-22T21:33:58.816Z,1.70
2022-10-22T21:36:32.894Z,1.60
2022-10-22T21:39:05.544Z,2.03
2022-10-22T21:41:36.984Z,1.60
2022-10-22T21:44:08.204Z,1.47
2022-10-22T21:46:39.274Z,1.30
2022-10-22T21:49:10.305Z,1.17
2022-10-22T21:51:43.275Z,1.00
2022-10-22T21:54:15.133Z,0.90
2022-10-22T21:56:46.118Z,1.00
2022-10-22T21:59:17.145Z,1.00
2022-10-22T22:01:48.262Z,0.80
2022-10-22T22:04:19.308Z,0.83
2022-10-22T22:06:52.857Z,1.00
2022-10-22T22:09:24.008Z,0.70
2022-10-22T22:11:55.020Z,1.23
2022-10-22T22:14:26.033Z,1.43
2022-10-22T22:16:56.739Z,1.20
2022-10-22T22:19:27.752Z,1.50
2022-10-22T22:22:00.795Z,1.30
2022-10-22T22:24:31.969Z,1.40
2022-10-22T22:27:04.704Z,1.00
2022-10-22T22:29:36.095Z,1.50
2022-10-22T22:32:07.172Z,1.30
2022-10-22T22:34:38.437Z,1.00
2022-10-22T22:37:13.789Z,0.63
2022-10-22T22:39:45.069Z,0.60
2022-10-22T22:42:16.119Z,0.60
2022-10-22T22:44:47.243Z,0.40
2022-10-22T22:47:20.502Z,0.53
2022-10-22T22:49:51.548Z,0.60
2022-10-22T22:52:25.257Z,0.57
2022-10-22T22:54:56.390Z,0.43
2022-10-22T22:57:27.255Z,0.47
2022-10-22T22:59:58.356Z,0.50
2022-10-22T23:02:28.903Z,0.70
2022-10-22T23:04:59.667Z,0.60
2022-10-22T23:07:32.036Z,0.60
2022-10-22T23:10:03.088Z,0.60
2022-10-22T23:12:34.343Z,0.87
2022-10-22T23:15:05.356Z,0.80
2022-10-22T23:20:08.433Z,0.93
2022-10-22T23:22:42.152Z,1.10
2022-10-22T23:25:14.324Z,1.00
2022-10-22T23:27:45.545Z,1.10
2022-10-22T23:30:17.161Z,1.30
2022-10-22T23:32:50.472Z,1.30
2022-10-22T23:35:22.181Z,1.20
2022-10-22T23:37:55.601Z,1.20
2022-10-22T23:40:26.567Z,1.07
2022-10-22T23:42:57.270Z,1.13
2022-10-22T23:45:28.303Z,1.10
2022-10-22T23:47:59.394Z,1.17
2022-10-22T23:50:30.947Z,1.10
2022-10-22T23:53:04.282Z,1.00
2022-10-22T23:55:35.652Z,1.10
2022-10-22T23:58:06.705Z,1.50
